Time;durP1;ratioP1;P1;durP2;ratioP2;P2;SDS_P1;SDS_P2;PMS_P1;PMS_P2;Temp;Humidity;BMP_temperature;BMP_pressure;BME280_temperature;BME280_humidity;BME280_pressure;Samples;Min_cycle;Max_cycle;Signal;HPM_P1;HPM_P2
2020/12/04 00:01:15;;;;;;;18.70;12.30;;;3.20;86.90;;;;;;5029348;28;20201;-83
2020/12/04 00:03:41;;;;;;;19.42;13.85;;;3.10;86.60;;;;;;5036988;28;20196;-82
2020/12/04 00:06:08;;;;;;;19.27;12.70;;;3.30;86.30;;;;;;5049387;28;20196;-82
2020/12/04 00:08:34;;;;;;;15.50;11.48;;;3.30;86.00;;;;;;5033750;28;20690;-83
2020/12/04 00:11:00;;;;;;;18.10;11.18;;;3.50;86.00;;;;;;5049166;28;20199;-82
2020/12/04 00:13:28;;;;;;;19.20;13.32;;;3.60;85.30;;;;;;5030776;28;20274;-82
2020/12/04 00:15:54;;;;;;;13.93;10.98;;;3.60;84.60;;;;;;5042153;28;20223;-82
2020/12/04 00:18:20;;;;;;;19.55;13.40;;;3.70;84.40;;;;;;5044760;28;20193;-82
2020/12/04 00:20:47;;;;;;;14.30;10.88;;;4.40;84.80;;;;;;5028483;28;20197;-82
2020/12/04 00:23:13;;;;;;;15.25;10.98;;;3.30;84.30;;;;;;5028791;28;20196;-82
2020/12/04 00:25:40;;;;;;;16.27;12.43;;;3.10;85.60;;;;;;5047455;28;20230;-82
2020/12/04 00:28:06;;;;;;;14.18;11.10;;;3.30;85.60;;;;;;5036315;28;20573;-82
2020/12/04 00:30:33;;;;;;;17.52;12.55;;;3.10;85.30;;;;;;5046761;28;20208;-82
2020/12/04 00:33:00;;;;;;;15.98;11.70;;;3.30;85.50;;;;;;5028681;28;20201;-82
2020/12/04 00:35:26;;;;;;;16.17;11.30;;;3.40;85.40;;;;;;5045816;28;20602;-82
2020/12/04 00:37:52;;;;;;;20.83;11.98;;;3.50;84.40;;;;;;5034393;28;20263;-82
2020/12/04 00:40:19;;;;;;;16.55;11.18;;;3.50;84.30;;;;;;5048566;28;20274;-82
2020/12/04 00:42:46;;;;;;;18.52;12.73;;;3.50;84.90;;;;;;5039946;28;20192;-83
2020/12/04 00:45:13;;;;;;;16.60;11.95;;;3.40;91.80;;;;;;5028634;28;20298;-81
2020/12/04 00:47:40;;;;;;;18.15;11.32;;;3.50;83.80;;;;;;5046420;28;20254;-83
2020/12/04 00:50:07;;;;;;;17.27;11.85;;;3.60;84.30;;;;;;5048751;28;20200;-83
2020/12/04 00:52:33;;;;;;;14.20;11.00;;;3.70;84.20;;;;;;5047663;28;20257;-82
2020/12/04 00:55:00;;;;;;;17.85;13.63;;;3.60;83.80;;;;;;5031500;28;20274;-82
2020/12/04 00:57:26;;;;;;;17.60;13.80;;;3.60;84.10;;;;;;5033301;28;20223;-82
2020/12/04 00:59:52;;;;;;;16.00;11.45;;;3.50;84.00;;;;;;5038603;28;20200;-82
2020/12/04 01:02:19;;;;;;;17.70;13.90;;;3.50;84.10;;;;;;5032176;28;20828;-82
2020/12/04 01:04:47;;;;;;;18.80;12.55;;;3.50;84.40;;;;;;5049684;28;20187;-82
2020/12/04 01:07:13;;;;;;;19.42;13.15;;;3.30;85.50;;;;;;5045716;28;20197;-82
2020/12/04 01:09:39;;;;;;;17.50;13.13;;;3.40;93.80;;;;;;5047331;28;20665;-82
2020/12/04 01:12:06;;;;;;;18.67;13.20;;;3.40;85.50;;;;;;5050281;28;20619;-82
2020/12/04 01:14:32;;;;;;;19.75;13.45;;;3.50;84.90;;;;;;5040858;28;20275;-83
2020/12/04 01:16:59;;;;;;;17.20;13.07;;;3.50;84.60;;;;;;5033833;28;20220;-82
2020/12/04 01:19:26;;;;;;;18.88;13.20;;;3.50;84.40;;;;;;5044039;28;20287;-82
2020/12/04 01:21:53;;;;;;;18.92;12.88;;;3.00;84.30;;;;;;5031487;28;20236;-82
2020/12/04 01:24:19;;;;;;;16.23;11.18;;;2.90;86.50;;;;;;5043107;28;20219;-83
2020/12/04 01:26:46;;;;;;;17.45;11.98;;;3.10;87.10;;;;;;5044681;28;20229;-82
2020/12/04 01:29:12;;;;;;;17.23;12.75;;;3.20;85.90;;;;;;5045551;28;20277;-82
2020/12/04 01:31:39;;;;;;;17.05;13.48;;;3.20;85.90;;;;;;5042366;28;20733;-82
2020/12/04 01:34:09;;;;;;;17.90;11.18;;;3.20;86.20;;;;;;5033451;28;20305;-82
2020/12/04 01:36:35;;;;;;;18.80;13.65;;;3.00;86.20;;;;;;5031756;28;20258;-81
2020/12/04 01:39:03;;;;;;;19.48;12.95;;;3.30;86.30;;;;;;5041771;28;20200;-82
2020/12/04 01:41:33;;;;;;;19.05;12.20;;;3.40;85.60;;;;;;5051031;28;20710;-82
2020/12/04 01:44:00;;;;;;;18.95;12.23;;;3.20;85.20;;;;;;5047276;28;20196;-82
2020/12/04 01:46:26;;;;;;;19.08;11.85;;;4.30;86.50;;;;;;5051926;28;20200;-82
2020/12/04 01:48:53;;;;;;;18.40;13.02;;;3.30;84.90;;;;;;5049973;28;20192;-81
2020/12/04 01:51:20;;;;;;;18.55;13.05;;;3.40;85.00;;;;;;5030758;28;20254;-82
2020/12/04 01:53:46;;;;;;;18.33;13.45;;;3.50;84.70;;;;;;5035332;28;20755;-82
2020/12/04 01:56:14;;;;;;;19.38;12.35;;;3.50;84.40;;;;;;5032581;28;20235;-82
2020/12/04 01:58:40;;;;;;;16.58;13.65;;;4.20;84.90;;;;;;5043744;28;20220;-82
2020/12/04 02:01:07;;;;;;;21.80;14.38;;;3.40;84.30;;;;;;5051860;28;20204;-80
2020/12/04 02:03:35;;;;;;;16.40;14.32;;;3.40;84.50;;;;;;5044691;28;20209;-82
2020/12/04 02:06:07;;;;;;;21.80;14.45;;;3.50;84.60;;;;;;5074462;28;20211;-82
2020/12/04 02:08:46;;;;;;;18.65;12.63;;;3.40;84.20;;;;;;5046187;28;20204;-82
2020/12/04 02:11:18;;;;;;;21.67;14.00;;;3.40;84.20;;;;;;5032326;28;20199;-82
2020/12/04 02:13:50;;;;;;;18.08;13.02;;;3.40;84.10;;;;;;5031933;28;20243;-82
2020/12/04 02:16:19;;;;;;;18.55;13.32;;;3.30;84.50;;;;;;5032225;28;20562;-82
2020/12/04 02:18:47;;;;;;;19.17;14.63;;;3.50;84.80;;;;;;5043570;28;20192;-82
2020/12/04 02:21:16;;;;;;;17.63;13.80;;;3.30;84.70;;;;;;5050783;28;20269;-82
2020/12/04 02:23:46;;;;;;;20.20;14.95;;;3.40;85.00;;;;;;5036852;28;20192;-82
2020/12/04 02:26:17;;;;;;;20.52;14.15;;;3.40;84.60;;;;;;5042302;28;20231;-82
2020/12/04 02:28:45;;;;;;;18.08;12.45;;;3.30;84.40;;;;;;5042453;28;20210;-82
2020/12/04 02:31:14;;;;;;;18.25;12.68;;;3.30;84.50;;;;;;5043742;28;20228;-81
2020/12/04 02:33:42;;;;;;;19.08;14.07;;;3.30;85.10;;;;;;5036276;28;20223;-80
2020/12/04 02:36:11;;;;;;;21.00;14.40;;;3.40;84.80;;;;;;5047048;28;20200;-82
2020/12/04 02:38:40;;;;;;;20.33;14.50;;;3.40;84.60;;;;;;5045001;28;20208;-82
2020/12/04 02:41:09;;;;;;;19.25;13.70;;;3.40;84.50;;;;;;5033519;28;20200;-81
2020/12/04 02:43:36;;;;;;;15.82;11.30;;;3.40;84.80;;;;;;5039989;28;20545;-82
2020/12/04 02:46:07;;;;;;;18.48;12.93;;;3.40;84.60;;;;;;5039667;28;20226;-82
2020/12/04 02:48:33;;;;;;;17.77;13.82;;;3.40;84.80;;;;;;5043034;28;20196;-82
2020/12/04 02:51:00;;;;;;;21.05;13.98;;;3.50;84.60;;;;;;5033234;28;20204;-82
2020/12/04 02:53:26;;;;;;;16.55;12.88;;;3.40;84.20;;;;;;5039694;28;20192;-82
2020/12/04 02:55:53;;;;;;;17.38;13.20;;;3.50;84.40;;;;;;5049772;28;20253;-82
2020/12/04 02:58:20;;;;;;;17.75;13.15;;;3.40;84.60;;;;;;5038253;28;20191;-82
2020/12/04 03:00:46;;;;;;;17.00;12.93;;;3.40;85.20;;;;;;5050257;28;20198;-82
2020/12/04 03:03:13;;;;;;;16.50;13.52;;;3.50;85.60;;;;;;5049781;28;20730;-82
2020/12/04 03:05:39;;;;;;;20.25;14.25;;;3.50;84.90;;;;;;5049623;28;20211;-81
2020/12/04 03:08:06;;;;;;;17.67;13.65;;;3.50;84.40;;;;;;5034821;28;20199;-82
2020/12/04 03:10:32;;;;;;;19.92;14.63;;;3.50;85.30;;;;;;5049917;28;20199;-82
2020/12/04 03:13:00;;;;;;;15.32;11.95;;;3.50;85.20;;;;;;5031791;28;20220;-82
2020/12/04 03:15:26;;;;;;;19.15;12.70;;;3.50;85.30;;;;;;5038486;28;20274;-82
2020/12/04 03:17:53;;;;;;;19.75;13.82;;;3.50;85.00;;;;;;5046716;28;20192;-82
2020/12/04 03:20:19;;;;;;;16.27;13.25;;;3.50;85.00;;;;;;5030847;28;20713;-82
2020/12/04 03:22:45;;;;;;;16.30;12.02;;;3.60;84.80;;;;;;5030518;28;20192;-82
2020/12/04 03:25:12;;;;;;;19.83;13.48;;;3.70;84.40;;;;;;5049774;28;20224;-82
2020/12/04 03:27:38;;;;;;;23.83;14.52;;;3.70;84.00;;;;;;5046753;28;20246;-82
2020/12/04 03:30:06;;;;;;;19.17;12.40;;;3.80;84.00;;;;;;5030654;28;20196;-82
2020/12/04 03:32:32;;;;;;;19.65;14.23;;;3.70;84.00;;;;;;5032473;28;20657;-82
2020/12/04 03:34:59;;;;;;;19.25;14.18;;;3.50;84.50;;;;;;5034448;28;20221;-82
2020/12/04 03:37:27;;;;;;;16.75;12.85;;;3.30;84.70;;;;;;5031271;28;20196;-82
2020/12/04 03:39:54;;;;;;;18.60;13.55;;;3.30;85.50;;;;;;5050192;28;20649;-82
2020/12/04 03:42:20;;;;;;;17.65;12.52;;;3.20;85.70;;;;;;5048399;28;20767;-82
2020/12/04 03:44:47;;;;;;;18.23;12.75;;;3.20;86.30;;;;;;5047692;28;20192;-82
2020/12/04 03:47:14;;;;;;;15.77;12.05;;;2.70;87.00;;;;;;5039973;28;20193;-82
2020/12/04 03:49:40;;;;;;;18.13;13.80;;;2.50;88.00;;;;;;5037468;28;20196;-82
2020/12/04 03:52:07;;;;;;;18.55;14.18;;;2.20;90.00;;;;;;5049130;28;20266;-82
2020/12/04 03:54:33;;;;;;;18.95;14.05;;;2.50;90.50;;;;;;5034135;28;20224;-83
2020/12/04 03:56:59;;;;;;;22.27;14.25;;;2.80;90.60;;;;;;5037160;28;20200;-82
2020/12/04 03:59:26;;;;;;;21.55;14.02;;;3.10;89.90;;;;;;5036795;28;20266;-82
2020/12/04 04:01:52;;;;;;;22.90;14.23;;;3.10;89.30;;;;;;5035082;28;20215;-82
2020/12/04 04:04:20;;;;;;;16.25;12.43;;;3.20;89.70;;;;;;5035275;28;20243;-82
2020/12/04 04:06:47;;;;;;;17.27;13.07;;;3.40;89.40;;;;;;5033926;28;20277;-82
2020/12/04 04:09:13;;;;;;;19.40;13.32;;;3.40;88.30;;;;;;5038517;28;20196;-82
2020/12/04 04:11:40;;;;;;;19.88;13.50;;;3.50;88.00;;;;;;5034089;28;20553;-82
2020/12/04 04:14:07;;;;;;;18.88;13.20;;;3.50;87.60;;;;;;5037598;28;20252;-82
2020/12/04 04:16:34;;;;;;;17.20;11.57;;;3.30;87.70;;;;;;5034201;28;20619;-82
2020/12/04 04:19:00;;;;;;;18.65;12.98;;;3.50;88.30;;;;;;5039184;28;20684;-82
2020/12/04 04:21:27;;;;;;;16.63;12.68;;;3.60;87.60;;;;;;5046705;28;20215;-82
2020/12/04 04:23:54;;;;;;;17.83;12.27;;;3.70;87.50;;;;;;5048088;28;20196;-82
2020/12/04 04:26:20;;;;;;;14.70;11.73;;;3.90;87.30;;;;;;5049290;28;20200;-82
2020/12/04 04:28:46;;;;;;;21.77;14.02;;;3.80;87.00;;;;;;5036730;28;20205;-82
2020/12/04 04:31:13;;;;;;;17.73;13.07;;;3.90;86.80;;;;;;5030847;28;20231;-82
2020/12/04 04:33:41;;;;;;;16.85;13.27;;;3.60;86.80;;;;;;5033470;28;20210;-82
2020/12/04 04:36:08;;;;;;;19.35;13.75;;;3.70;87.50;;;;;;5049077;28;20204;-82
2020/12/04 04:38:36;;;;;;;20.42;12.48;;;3.90;87.60;;;;;;5035146;28;20188;-82
2020/12/04 04:41:02;;;;;;;17.77;13.05;;;3.90;86.90;;;;;;5049389;28;20681;-82
2020/12/04 04:43:28;;;;;;;17.42;12.48;;;3.90;86.50;;;;;;5036964;28;20207;-82
2020/12/04 04:46:04;;;;;;;15.93;11.30;;;3.90;86.90;;;;;;5039455;28;20245;-82
2020/12/04 04:48:34;;;;;;;14.85;11.30;;;3.20;87.50;;;;;;5048662;28;20284;-82
2020/12/04 04:51:00;;;;;;;15.98;10.55;;;3.30;88.90;;;;;;5038458;28;20205;-82
2020/12/04 04:53:29;;;;;;;16.33;11.05;;;3.30;89.50;;;;;;5040219;28;20217;-82
2020/12/04 04:55:56;;;;;;;14.30;10.88;;;3.40;89.30;;;;;;5029633;28;20208;-82
2020/12/04 04:58:22;;;;;;;13.68;10.52;;;3.40;88.40;;;;;;5039795;28;20200;-82
2020/12/04 05:00:49;;;;;;;14.30;11.30;;;3.50;88.40;;;;;;5029341;28;20197;-82
2020/12/04 05:03:15;;;;;;;14.77;10.77;;;3.30;87.90;;;;;;5044814;28;20747;-82
2020/12/04 05:05:43;;;;;;;13.75;10.52;;;3.50;88.00;;;;;;5049238;28;20250;-83
2020/12/04 05:08:10;;;;;;;13.73;10.15;;;3.60;87.60;;;;;;5034394;28;20310;-82
2020/12/04 05:10:37;;;;;;;14.55;10.75;;;3.80;87.10;;;;;;5029163;28;20204;-82
2020/12/04 05:13:04;;;;;;;12.27;9.73;;;4.00;86.50;;;;;;5044382;28;20290;-82
2020/12/04 05:15:31;;;;;;;12.98;10.18;;;4.00;86.30;;;;;;5048984;28;20322;-82
2020/12/04 05:18:06;;;;;;;14.05;11.43;;;4.00;86.10;;;;;;5033225;28;20228;-82
2020/12/04 05:20:34;;;;;;;18.33;11.00;;;4.20;86.60;;;;;;5038715;28;20196;-82
2020/12/04 05:23:01;;;;;;;13.27;8.55;;;4.10;86.50;;;;;;5028775;28;20278;-82
2020/12/04 05:25:33;;;;;;;12.75;10.13;;;4.20;86.20;;;;;;5047902;28;20207;-82
2020/12/04 05:28:12;;;;;;;14.18;10.05;;;4.30;85.80;;;;;;5041584;28;20200;-82
2020/12/04 05:30:40;;;;;;;14.48;9.32;;;4.30;85.30;;;;;;5047375;28;20192;-82
2020/12/04 05:33:07;;;;;;;14.02;10.60;;;4.20;84.90;;;;;;5031653;28;20215;-82
2020/12/04 05:35:34;;;;;;;11.70;9.45;;;4.30;84.90;;;;;;5044205;28;20285;-82
2020/12/04 05:38:10;;;;;;;12.80;11.23;;;4.30;84.50;;;;;;5047525;28;20246;-81
2020/12/04 05:40:37;;;;;;;14.53;11.03;;;4.50;83.90;;;;;;5033141;28;21131;-81
2020/12/04 05:43:04;;;;;;;15.05;11.77;;;4.30;83.40;;;;;;5045444;28;20783;-81
2020/12/04 05:45:32;;;;;;;14.52;9.65;;;4.30;83.40;;;;;;5045466;28;20200;-81
2020/12/04 05:47:58;;;;;;;17.50;10.32;;;4.20;83.60;;;;;;5050114;28;20200;-81
2020/12/04 05:50:25;;;;;;;16.25;11.15;;;4.20;83.80;;;;;;5039041;28;20254;-81
2020/12/04 05:52:51;;;;;;;14.93;10.30;;;4.20;83.40;;;;;;5050296;28;20250;-81
2020/12/04 05:55:18;;;;;;;19.10;10.80;;;4.30;83.60;;;;;;5050800;28;20220;-81
2020/12/04 05:57:47;;;;;;;12.52;9.95;;;4.30;84.80;;;;;;5051960;28;20200;-81
2020/12/04 06:00:15;;;;;;;13.07;10.32;;;4.20;84.30;;;;;;5033975;28;20200;-81
2020/12/04 06:02:42;;;;;;;13.85;10.45;;;4.30;84.80;;;;;;5041316;28;20214;-80
2020/12/04 06:05:10;;;;;;;16.25;10.65;;;4.30;83.90;;;;;;5032908;28;20196;-82
2020/12/04 06:07:37;;;;;;;14.75;10.10;;;4.20;83.30;;;;;;5044268;28;20224;-82
2020/12/04 06:10:04;;;;;;;16.95;10.52;;;3.90;83.50;;;;;;5050291;28;20195;-81
2020/12/04 06:12:30;;;;;;;12.65;9.45;;;4.10;84.70;;;;;;5051686;28;20254;-82
2020/12/04 06:15:25;;;;;;;16.92;12.13;;;4.10;84.60;;;;;;5051314;28;20215;-82
2020/12/04 06:18:00;;;;;;;13.80;11.55;;;4.20;83.90;;;;;;5049074;28;20246;-81
2020/12/04 06:20:27;;;;;;;16.45;10.82;;;4.00;83.20;;;;;;5041115;28;20184;-82
2020/12/04 06:23:07;;;;;;;14.77;10.55;;;4.60;84.20;;;;;;5048903;28;20196;-81
2020/12/04 06:26:03;;;;;;;15.27;10.30;;;4.00;83.70;;;;;;5042355;28;20196;-82
2020/12/04 06:28:31;;;;;;;17.83;12.02;;;4.50;84.50;;;;;;5038464;28;20670;-82
2020/12/04 06:31:06;;;;;;;13.68;11.02;;;4.00;83.90;;;;;;5034213;28;20209;-83
2020/12/04 06:33:38;;;;;;;14.95;10.80;;;4.00;83.70;;;;;;5035630;28;20210;-83
2020/12/04 06:36:06;;;;;;;16.30;12.13;;;4.10;83.60;;;;;;5051494;28;20601;-83
2020/12/04 06:38:44;;;;;;;30.95;13.35;;;4.10;82.60;;;;;;5049986;28;20719;-83
2020/12/04 06:41:28;;;;;;;35.28;13.18;;;4.20;82.30;;;;;;5051940;28;20211;-82
2020/12/04 06:43:57;;;;;;;34.75;15.48;;;4.10;81.60;;;;;;5049230;28;20203;-83
2020/12/04 06:46:31;;;;;;;24.17;12.50;;;4.20;81.90;;;;;;5038142;28;20251;-83
2020/12/04 06:49:37;;;;;;;17.52;12.75;;;4.10;82.10;;;;;;5038507;28;20265;-82
2020/12/04 06:52:15;;;;;;;17.20;11.20;;;4.00;82.40;;;;;;5035956;28;20205;-82
2020/12/04 06:54:45;;;;;;;16.33;12.20;;;4.10;82.60;;;;;;5046057;28;20212;-83
2020/12/04 06:57:12;;;;;;;16.77;12.25;;;4.10;82.50;;;;;;5042399;28;20205;-83
2020/12/04 06:59:40;;;;;;;18.58;13.00;;;3.90;82.90;;;;;;5047944;28;20278;-83
2020/12/04 07:02:11;;;;;;;18.02;13.05;;;3.80;83.40;;;;;;5041282;28;20568;-83
2020/12/04 07:04:40;;;;;;;16.42;10.98;;;4.00;83.60;;;;;;5047394;28;20200;-83
2020/12/04 07:07:17;;;;;;;16.95;12.40;;;3.90;83.30;;;;;;5042717;28;20231;-83
2020/12/04 07:09:52;;;;;;;18.42;12.77;;;3.90;83.10;;;;;;5044757;28;21344;-82
2020/12/04 07:12:20;;;;;;;16.50;12.10;;;3.90;82.90;;;;;;5048337;28;20656;-82
2020/12/04 07:14:49;;;;;;;18.63;12.80;;;3.80;82.70;;;;;;5048527;28;20227;-83
2020/12/04 07:17:16;;;;;;;17.08;11.13;;;3.80;83.90;;;;;;5045743;28;20192;-83
2020/12/04 07:19:47;;;;;;;15.40;11.70;;;3.90;83.70;;;;;;5049488;28;20185;-83
2020/12/04 07:22:15;;;;;;;20.98;13.05;;;4.00;91.90;;;;;;5043433;28;20590;-82
2020/12/04 07:24:41;;;;;;;19.92;12.98;;;4.00;82.60;;;;;;5046819;28;20204;-83
2020/12/04 07:27:08;;;;;;;25.90;14.40;;;4.10;82.50;;;;;;5041390;28;20245;-83
2020/12/04 07:29:38;;;;;;;18.63;13.05;;;4.20;82.30;;;;;;5045338;28;20243;-82
2020/12/04 07:32:04;;;;;;;22.42;13.38;;;4.10;82.10;;;;;;5044514;28;20691;-83
2020/12/04 07:34:35;;;;;;;16.20;12.80;;;4.00;82.70;;;;;;5046603;28;20219;-83
2020/12/04 07:37:03;;;;;;;18.98;12.80;;;4.40;83.50;;;;;;5049801;28;20231;-83
2020/12/04 07:39:31;;;;;;;20.50;12.70;;;4.00;83.80;;;;;;5044295;28;20197;-82
2020/12/04 07:42:00;;;;;;;14.27;12.32;;;4.00;83.20;;;;;;5039587;28;20246;-83
2020/12/04 07:44:32;;;;;;;18.27;13.20;;;4.10;82.70;;;;;;5043457;28;20200;-82
2020/12/04 07:47:11;;;;;;;17.80;12.65;;;4.00;82.50;;;;;;5048652;28;20607;-82
2020/12/04 07:49:41;;;;;;;18.48;13.45;;;4.10;83.20;;;;;;5034181;28;20565;-82
2020/12/04 07:52:14;;;;;;;19.00;12.95;;;4.00;82.40;;;;;;5030170;28;20235;-82
2020/12/04 07:54:41;;;;;;;17.40;13.65;;;4.10;82.80;;;;;;5032248;28;20274;-82
2020/12/04 07:57:08;;;;;;;18.23;11.73;;;4.10;82.60;;;;;;5032091;28;20715;-82
2020/12/04 07:59:36;;;;;;;17.25;12.18;;;4.10;82.70;;;;;;5046642;28;20262;-83
2020/12/04 08:02:04;;;;;;;15.70;11.98;;;4.00;83.90;;;;;;5048269;28;20254;-82
2020/12/04 08:04:32;;;;;;;21.55;14.25;;;4.10;83.90;;;;;;5050564;28;20192;-83
2020/12/04 08:07:08;;;;;;;19.20;15.05;;;4.20;83.60;;;;;;5051839;28;20200;-83
2020/12/04 08:09:38;;;;;;;15.68;13.00;;;4.20;83.30;;;;;;5036999;28;20258;-83
2020/12/04 08:12:13;;;;;;;16.75;11.90;;;4.50;83.80;;;;;;5035002;28;20211;-82
2020/12/04 08:14:41;;;;;;;21.60;13.25;;;4.40;92.20;;;;;;5051940;28;20234;-82
2020/12/04 08:17:08;;;;;;;17.55;13.13;;;4.40;83.80;;;;;;5042017;28;20604;-83
2020/12/04 08:19:36;;;;;;;17.42;12.57;;;4.40;83.30;;;;;;5053277;28;20254;-83
2020/12/04 08:22:05;;;;;;;21.45;14.10;;;4.50;82.90;;;;;;5042259;28;20203;-83
2020/12/04 08:24:34;;;;;;;19.02;13.60;;;4.50;82.80;;;;;;5045613;28;20282;-83
2020/12/04 08:27:07;;;;;;;18.52;13.52;;;4.60;82.60;;;;;;5054640;28;20600;-83
2020/12/04 08:29:35;;;;;;;17.95;12.90;;;5.10;82.60;;;;;;5040154;28;20255;-82
2020/12/04 08:32:06;;;;;;;20.85;13.25;;;4.60;82.10;;;;;;5033631;28;20197;-82
2020/12/04 08:34:33;;;;;;;23.60;13.35;;;4.60;82.70;;;;;;5051413;28;20211;-83
2020/12/04 08:37:03;;;;;;;17.05;12.90;;;4.60;82.80;;;;;;5054095;28;20215;-84
2020/12/04 08:39:38;;;;;;;20.08;14.40;;;4.70;82.80;;;;;;5046083;28;20226;-83
2020/12/04 08:42:23;;;;;;;19.05;13.48;;;4.80;82.20;;;;;;5054667;28;20253;-83
2020/12/04 08:45:01;;;;;;;25.00;13.73;;;4.90;81.90;;;;;;5043249;28;20222;-84
2020/12/04 08:47:30;;;;;;;15.25;12.65;;;4.90;82.10;;;;;;5053597;28;20188;-83
2020/12/04 08:49:57;;;;;;;21.67;14.25;;;5.00;81.70;;;;;;5053486;28;20196;-84
2020/12/04 08:52:41;;;;;;;25.23;14.57;;;4.90;81.60;;;;;;5053563;28;20196;-84
2020/12/04 08:55:09;;;;;;;20.40;13.70;;;4.90;81.50;;;;;;5053895;28;20219;-84
2020/12/04 08:57:37;;;;;;;16.42;13.45;;;4.90;81.10;;;;;;5053228;28;20299;-83
2020/12/04 09:00:06;;;;;;;20.23;13.82;;;4.90;81.50;;;;;;5052673;28;20607;-84
2020/12/04 09:02:33;;;;;;;16.95;12.75;;;5.00;81.60;;;;;;5041217;28;20208;-84
2020/12/04 09:05:00;;;;;;;17.38;13.73;;;5.10;81.30;;;;;;5049792;28;20282;-83
2020/12/04 09:07:26;;;;;;;15.02;12.80;;;5.20;81.30;;;;;;5044075;28;20196;-84
2020/12/04 09:09:52;;;;;;;15.02;12.15;;;5.10;81.20;;;;;;5035666;28;20609;-83
2020/12/04 09:12:21;;;;;;;16.88;12.65;;;5.20;80.80;;;;;;5045327;28;20208;-83
2020/12/04 09:14:50;;;;;;;15.10;12.35;;;5.20;80.10;;;;;;5039289;28;20228;-83
2020/12/04 09:17:16;;;;;;;20.05;12.70;;;5.00;81.50;;;;;;5048976;28;20609;-83
2020/12/04 09:19:46;;;;;;;15.82;12.30;;;5.10;81.70;;;;;;5043480;28;20645;-83
2020/12/04 09:22:14;;;;;;;20.65;13.23;;;5.20;81.60;;;;;;5050877;28;20252;-83
2020/12/04 09:24:40;;;;;;;17.27;12.85;;;5.30;81.60;;;;;;5057763;28;20196;-83
2020/12/04 09:27:07;;;;;;;21.50;14.32;;;5.40;80.90;;;;;;5058104;28;20200;-84
2020/12/04 09:29:35;;;;;;;20.33;16.38;;;5.40;80.80;;;;;;5043338;28;20287;-83
2020/12/04 09:32:07;;;;;;;20.00;14.50;;;5.40;81.10;;;;;;5037382;28;20246;-83
2020/12/04 09:34:34;;;;;;;21.45;14.48;;;5.60;80.90;;;;;;5051556;28;20277;-83
2020/12/04 09:37:17;;;;;;;31.85;16.25;;;5.40;80.10;;;;;;5057414;28;20345;-83
2020/12/04 09:39:44;;;;;;;23.88;15.20;;;5.60;80.80;;;;;;5055407;28;20226;-82
2020/12/04 09:42:14;;;;;;;22.85;13.95;;;5.60;80.30;;;;;;5055938;28;20228;-82
2020/12/04 09:44:41;;;;;;;21.77;14.00;;;6.00;79.90;;;;;;5040462;28;20205;-83
2020/12/04 09:47:08;;;;;;;19.35;14.48;;;5.60;78.60;;;;;;5056182;28;20594;-83
2020/12/04 09:49:35;;;;;;;21.60;13.80;;;5.60;78.50;;;;;;5042068;28;20673;-83
2020/12/04 09:52:03;;;;;;;20.25;11.80;;;5.60;78.60;;;;;;5044703;28;20200;-84
2020/12/04 09:54:31;;;;;;;14.55;12.43;;;5.50;77.90;;;;;;5041698;28;20220;-83
2020/12/04 09:56:58;;;;;;;22.45;12.13;;;5.50;78.30;;;;;;5044325;28;20212;-83
2020/12/04 09:59:25;;;;;;;14.95;12.00;;;5.30;78.20;;;;;;5043108;28;20246;-83
2020/12/04 10:01:53;;;;;;;16.30;12.10;;;5.50;79.10;;;;;;5041990;28;20208;-84
2020/12/04 10:04:23;;;;;;;15.68;12.30;;;5.50;78.20;;;;;;5044080;28;20197;-84
2020/12/04 10:06:50;;;;;;;18.77;13.00;;;5.50;78.10;;;;;;5040971;28;20200;-83
2020/12/04 10:09:16;;;;;;;19.63;13.93;;;5.60;78.60;;;;;;5045289;28;20205;-84
2020/12/04 10:11:43;;;;;;;16.70;12.05;;;5.40;78.50;;;;;;5042767;28;20717;-83
2020/12/04 10:14:10;;;;;;;14.75;12.02;;;5.60;79.00;;;;;;5046743;28;20267;-84
2020/12/04 10:16:36;;;;;;;18.27;13.18;;;5.60;78.80;;;;;;5044946;28;20208;-83
2020/12/04 10:19:04;;;;;;;17.90;12.55;;;6.40;79.80;;;;;;5052789;28;20193;-83
2020/12/04 10:21:34;;;;;;;18.67;12.45;;;5.20;78.60;;;;;;5047302;28;20238;-83
2020/12/04 10:24:02;;;;;;;17.15;12.40;;;5.20;79.90;;;;;;5047689;28;20200;-84
2020/12/04 10:26:28;;;;;;;16.90;12.60;;;5.40;79.20;;;;;;5048212;28;20256;-84
2020/12/04 10:28:55;;;;;;;18.25;13.75;;;5.30;78.10;;;;;;5046420;28;20197;-84
2020/12/04 10:31:22;;;;;;;18.58;13.57;;;5.30;78.00;;;;;;5036730;28;20197;-84
2020/12/04 10:33:48;;;;;;;19.35;14.10;;;5.40;78.10;;;;;;5045129;28;20188;-84
2020/12/04 10:36:15;;;;;;;17.35;14.00;;;5.50;78.40;;;;;;5049852;28;20221;-84
2020/12/04 10:38:42;;;;;;;25.98;13.45;;;5.50;78.40;;;;;;5038910;28;20287;-85
2020/12/04 10:41:09;;;;;;;20.48;12.57;;;5.50;79.00;;;;;;5037533;28;20542;-83
2020/12/04 10:43:36;;;;;;;19.83;12.07;;;5.50;79.50;;;;;;5047332;28;20197;-85
2020/12/04 10:46:03;;;;;;;19.58;13.60;;;5.60;79.50;;;;;;5047599;28;20231;-84
2020/12/04 10:48:29;;;;;;;20.33;12.57;;;5.70;79.20;;;;;;5055894;28;20258;-84
2020/12/04 10:50:56;;;;;;;13.95;12.50;;;5.70;79.30;;;;;;5055999;28;20196;-84
2020/12/04 10:53:29;;;;;;;16.58;13.80;;;5.70;78.60;;;;;;5051983;28;20191;-84
2020/12/04 10:55:56;;;;;;;18.42;13.93;;;5.60;78.80;;;;;;5036585;28;20744;-84
2020/12/04 10:58:23;;;;;;;17.33;12.52;;;4.80;81.40;;;;;;5044144;28;20541;-83
2020/12/04 11:00:50;;;;;;;17.30;11.80;;;4.20;84.00;;;;;;5056155;28;20269;-84
2020/12/04 11:03:25;;;;;;;18.58;12.85;;;4.80;86.10;;;;;;5048853;28;20667;-83
2020/12/04 11:05:51;;;;;;;18.98;12.48;;;4.30;86.20;;;;;;5052349;28;20188;-84
2020/12/04 11:08:17;;;;;;;17.20;12.00;;;4.70;84.60;;;;;;5054338;28;20558;-83
2020/12/04 11:10:45;;;;;;;14.30;11.40;;;4.80;82.80;;;;;;5055313;28;20204;-83
2020/12/04 11:13:13;;;;;;;19.70;13.55;;;5.00;83.00;;;;;;5051472;28;20197;-84
2020/12/04 11:15:40;;;;;;;15.13;11.98;;;4.50;83.40;;;;;;5035722;28;20224;-83
2020/12/04 11:18:08;;;;;;;18.95;12.40;;;4.90;83.50;;;;;;5038265;28;20231;-84
2020/12/04 11:20:35;;;;;;;17.42;13.07;;;5.30;83.80;;;;;;5053483;28;20278;-84
2020/12/04 11:23:01;;;;;;;12.75;11.30;;;5.20;83.40;;;;;;5052525;28;20188;-84
2020/12/04 11:25:28;;;;;;;16.98;10.80;;;5.60;82.20;;;;;;5053684;28;20200;-84
2020/12/04 11:27:54;;;;;;;14.65;10.60;;;5.60;81.50;;;;;;5050065;28;20209;-83
2020/12/04 11:30:23;;;;;;;15.50;11.07;;;6.00;82.20;;;;;;5055161;28;20223;-84
2020/12/04 11:32:50;;;;;;;15.27;10.95;;;5.10;83.40;;;;;;5045318;28;20184;-84
2020/12/04 11:35:18;;;;;;;10.77;8.90;;;5.30;83.20;;;;;;5052428;28;20215;-83
2020/12/04 11:37:46;;;;;;;12.13;9.95;;;5.60;83.10;;;;;;5047068;28;20193;-84
2020/12/04 11:40:14;;;;;;;16.15;10.00;;;5.60;82.30;;;;;;5053471;28;20287;-84
2020/12/04 11:42:43;;;;;;;16.08;10.82;;;5.00;81.90;;;;;;5047058;28;20197;-83
2020/12/04 11:45:11;;;;;;;16.08;10.75;;;5.10;82.80;;;;;;5045009;28;20192;-84
2020/12/04 11:47:39;;;;;;;14.13;10.35;;;5.90;83.40;;;;;;5053582;28;20196;-84
2020/12/04 11:50:07;;;;;;;18.90;11.60;;;5.70;83.60;;;;;;5054177;28;20223;-84
2020/12/04 11:52:33;;;;;;;12.43;10.35;;;5.70;83.70;;;;;;5049980;28;20184;-84
2020/12/04 11:54:59;;;;;;;12.65;10.27;;;5.70;83.00;;;;;;5048369;28;20742;-84
2020/12/04 11:57:26;;;;;;;13.68;10.27;;;5.80;82.80;;;;;;5038320;28;20192;-84
2020/12/04 11:59:52;;;;;;;14.95;11.93;;;6.00;82.40;;;;;;5041780;28;20204;-84
2020/12/04 12:02:19;;;;;;;14.57;11.35;;;6.10;81.60;;;;;;5042329;28;20406;-84
2020/12/04 12:04:46;;;;;;;16.20;9.77;;;6.10;81.30;;;;;;5051705;28;20192;-84
2020/12/04 12:07:13;;;;;;;15.70;11.20;;;6.00;81.10;;;;;;5054996;28;20249;-84
2020/12/04 12:09:39;;;;;;;17.48;10.88;;;6.00;80.00;;;;;;5035787;28;20193;-84
2020/12/04 12:12:05;;;;;;;12.60;10.60;;;5.80;79.80;;;;;;5033531;28;20212;-84
2020/12/04 12:14:32;;;;;;;13.98;11.30;;;5.90;80.50;;;;;;5037660;28;20189;-84
2020/12/04 12:16:58;;;;;;;15.45;10.43;;;6.00;81.30;;;;;;5042367;28;20211;-84
2020/12/04 12:19:26;;;;;;;15.15;11.52;;;6.10;81.90;;;;;;5040125;28;20541;-84
2020/12/04 12:21:54;;;;;;;14.52;10.40;;;6.00;81.80;;;;;;5051862;28;20261;-84
2020/12/04 12:24:21;;;;;;;12.65;10.55;;;6.10;81.90;;;;;;5053055;28;20192;-83
2020/12/04 12:26:48;;;;;;;18.08;11.70;;;6.00;81.60;;;;;;5054702;28;20196;-84
2020/12/04 12:29:14;;;;;;;27.42;14.88;;;6.20;81.30;;;;;;5054339;28;20211;-84
2020/12/04 12:31:41;;;;;;;15.77;11.40;;;6.10;80.40;;;;;;5054845;28;20224;-84
2020/12/04 12:34:07;;;;;;;13.00;11.02;;;6.20;81.60;;;;;;5052996;28;20200;-84
2020/12/04 12:36:33;;;;;;;15.05;10.77;;;6.20;81.40;;;;;;5050486;28;20240;-84
2020/12/04 12:39:01;;;;;;;15.85;11.20;;;6.30;80.90;;;;;;5042075;28;20214;-83
2020/12/04 12:41:27;;;;;;;19.40;12.13;;;5.50;80.30;;;;;;5054078;28;20283;-84
2020/12/04 12:43:54;;;;;;;13.63;11.93;;;5.30;81.80;;;;;;5045257;28;20196;-84